Time;durP1;ratioP1;P1;durP2;ratioP2;P2;SDS_P1;SDS_P2;PMS_P1;PMS_P2;Temp;Humidity;BMP_temperature;BMP_pressure;BME280_temperature;BME280_humidity;BME280_pressure;Samples;Min_cycle;Max_cycle;Signal;HPM_P1;HPM_P2
2023/05/17 00:00:52;;;;;;;3.45;0.70;;;;;;;-142.57;100.00;115900.28;5041948;28;20036;-87
2023/05/17 00:03:21;;;;;;;3.20;0.80;;;;;;;-142.57;100.00;115900.28;5035163;28;20044;-85
2023/05/17 00:05:46;;;;;;;2.97;0.90;;;;;;;-142.57;100.00;115900.28;5033399;28;20160;-84
2023/05/17 00:08:12;;;;;;;4.18;0.80;;;;;;;-142.57;100.00;115900.28;5032862;28;20072;-83
2023/05/17 00:10:38;;;;;;;4.45;1.00;;;;;;;-142.57;100.00;115900.28;5032442;28;20484;-82
2023/05/17 00:13:03;;;;;;;2.47;1.00;;;;;;;-142.57;100.00;115900.28;5035003;28;20048;-87
2023/05/17 00:15:29;;;;;;;1.92;0.93;;;;;;;-142.57;100.00;115900.28;5032904;28;20332;-85
2023/05/17 00:17:54;;;;;;;1.50;0.90;;;;;;;-142.57;100.00;115900.28;5032670;28;20087;-86
2023/05/17 00:20:23;;;;;;;1.45;0.57;;;;;;;-142.57;100.00;115900.28;5034378;28;20033;-83
2023/05/17 00:22:48;;;;;;;3.63;0.80;;;;;;;-142.57;100.00;115900.28;5034086;28;20030;-85
2023/05/17 00:25:16;;;;;;;3.13;0.93;;;;;;;-142.57;100.00;115900.28;5034055;28;20455;-86
2023/05/17 00:27:42;;;;;;;4.25;1.08;;;;;;;-142.57;100.00;115900.28;5016459;28;20069;-84
2023/05/17 00:30:08;;;;;;;5.25;0.68;;;;;;;-142.57;100.00;115900.28;5033517;28;20037;-83
2023/05/17 00:32:35;;;;;;;2.15;0.75;;;;;;;-142.57;100.00;115900.28;5032761;28;20034;-85
2023/05/17 00:35:01;;;;;;;1.27;0.82;;;;;;;-142.57;100.00;115900.28;5032357;28;20033;-84
2023/05/17 00:37:26;;;;;;;1.67;0.73;;;;;;;-142.57;100.00;115900.28;5033880;28;20504;-84
2023/05/17 00:39:52;;;;;;;2.25;0.60;;;;;;;-142.57;100.00;115900.28;5015852;28;20037;-85
2023/05/17 00:42:18;;;;;;;3.00;0.88;;;;;;;-142.57;100.00;115900.28;5043210;28;20038;-83
2023/05/17 00:44:46;;;;;;;3.08;0.70;;;;;;;-142.57;100.00;115900.28;5047607;28;20085;-85
2023/05/17 00:47:12;;;;;;;1.73;0.73;;;;;;;-142.57;100.00;115900.28;5034434;28;20029;-84
2023/05/17 00:49:37;;;;;;;1.17;0.55;;;;;;;-142.57;100.00;115900.28;5017422;28;20056;-83
2023/05/17 00:52:03;;;;;;;4.65;0.85;;;;;;;-142.57;100.00;115900.28;5034729;28;20072;-85
2023/05/17 00:54:30;;;;;;;3.50;0.90;;;;;;;-142.57;100.00;115900.28;5032774;28;20038;-85
2023/05/17 00:56:58;;;;;;;1.02;0.40;;;;;;;-142.57;100.00;115900.28;5032704;28;20426;-86
2023/05/17 00:59:25;;;;;;;1.75;0.80;;;;;;;-142.57;100.00;115900.28;5032418;28;20617;-85
2023/05/17 01:01:51;;;;;;;3.45;0.90;;;;;;;-142.57;100.00;115900.28;5033962;28;20372;-86
2023/05/17 01:04:17;;;;;;;3.63;1.10;;;;;;;-142.57;100.00;115900.28;5037877;28;20033;-87
2023/05/17 01:06:44;;;;;;;3.22;0.88;;;;;;;-142.57;100.00;115900.28;5054534;28;20037;-89
2023/05/17 01:09:10;;;;;;;4.85;0.88;;;;;;;-142.57;100.00;115900.28;5052288;28;20044;-86
2023/05/17 01:12:14;;;;;;;2.97;0.73;;;;;;;-142.57;100.00;115900.28;5056251;28;20394;-86
2023/05/17 01:15:06;;;;;;;0.73;0.73;;;;;;;-142.57;100.00;115900.28;5073159;28;20086;-84
2023/05/17 01:17:51;;;;;;;4.30;0.90;;;;;;;-142.57;100.00;115900.28;5056263;28;20029;-85
2023/05/17 01:20:23;;;;;;;5.88;0.82;;;;;;;-142.57;100.00;115900.28;5056049;28;20090;-86
2023/05/17 01:22:53;;;;;;;;;;;;;;;-142.57;100.00;115900.28;5057938;28;20048;-84
2023/05/17 01:25:56;;;;;;;1.70;0.68;;;;;;;-142.57;100.00;115900.28;5056442;28;20023;-84
2023/05/17 01:28:25;;;;;;;3.08;0.98;;;;;;;-142.57;100.00;115900.28;5056071;28;20041;-85
2023/05/17 01:30:53;;;;;;;1.17;0.68;;;;;;;-142.57;100.00;115900.28;5057251;28;20098;-85
2023/05/17 01:33:19;;;;;;;4.45;0.80;;;;;;;-142.57;100.00;115900.28;5056133;28;20025;-88
2023/05/17 01:35:45;;;;;;;2.85;0.70;;;;;;;-142.57;100.00;115900.28;5072464;28;20029;-83
2023/05/17 01:38:11;;;;;;;2.40;1.00;;;;;;;-142.57;100.00;115900.28;5055885;28;20084;-86
2023/05/17 01:40:43;;;;;;;2.67;0.93;;;;;;;-142.57;100.00;115900.28;5057262;28;20033;-84
2023/05/17 01:43:43;;;;;;;4.67;0.90;;;;;;;-142.57;100.00;115900.28;5057541;28;20059;-84
2023/05/17 01:46:23;;;;;;;1.67;0.90;;;;;;;-142.57;100.00;115900.28;5049140;28;20068;-86
2023/05/17 01:48:59;;;;;;;3.65;0.93;;;;;;;-142.57;100.00;115900.28;5058059;28;20040;-88
2023/05/17 01:51:32;;;;;;;3.13;0.80;;;;;;;-142.57;100.00;115900.28;5058140;28;20120;-87
2023/05/17 01:54:10;;;;;;;1.48;1.08;;;;;;;-142.57;100.00;115900.28;5060127;28;20039;-86
2023/05/17 01:56:41;;;;;;;5.50;1.27;;;;;;;-142.57;100.00;115900.28;5062269;28;20052;-89
2023/05/17 01:59:13;;;;;;;1.38;0.82;;;;;;;-142.57;100.00;115900.28;5072955;28;20103;-88
2023/05/17 02:01:40;;;;;;;2.63;0.98;;;;;;;-142.57;100.00;115900.28;5063925;28;20037;-87
2023/05/17 02:04:09;;;;;;;4.40;1.17;;;;;;;-142.57;100.00;115900.28;5060951;28;20040;-86
2023/05/17 02:06:35;;;;;;;1.48;1.10;;;;;;;-142.57;100.00;115900.28;5068949;28;20041;-86
2023/05/17 02:09:01;;;;;;;3.45;1.10;;;;;;;-142.57;100.00;115900.28;5062294;28;20124;-88
2023/05/17 02:11:27;;;;;;;3.65;0.98;;;;;;;-142.57;100.00;115900.28;5056476;28;20036;-87
2023/05/17 02:13:53;;;;;;;7.35;1.13;;;;;;;-142.57;100.00;115900.28;5056607;28;20508;-86
2023/05/17 02:16:19;;;;;;;3.92;1.23;;;;;;;-142.57;100.00;115900.28;5058719;28;20037;-86
2023/05/17 02:18:45;;;;;;;4.38;1.10;;;;;;;-142.57;100.00;115900.28;5057046;28;20032;-85
2023/05/17 02:21:12;;;;;;;2.97;1.30;;;;;;;-142.57;100.00;115900.28;5065060;28;20044;-87
2023/05/17 02:23:37;;;;;;;6.38;1.05;;;;;;;-142.57;100.00;115900.28;5058272;28;20146;-89
2023/05/17 02:26:24;;;;;;;1.98;1.08;;;;;;;-142.57;100.00;115900.28;5067320;28;20053;-85
2023/05/17 02:28:49;;;;;;;1.10;1.00;;;;;;;-142.57;100.00;115900.28;5068031;28;20158;-87
2023/05/17 02:31:15;;;;;;;3.88;1.10;;;;;;;-142.57;100.00;115900.28;5067555;28;20037;-87
2023/05/17 02:33:40;;;;;;;4.40;0.90;;;;;;;-142.57;100.00;115900.28;5084755;28;20033;-88
2023/05/17 02:36:43;;;;;;;2.85;1.20;;;;;;;-142.57;100.00;115900.28;5064481;28;20493;-88
2023/05/17 02:39:11;;;;;;;4.10;0.90;;;;;;;-142.57;100.00;115900.28;5064178;28;20040;-88
2023/05/17 02:41:37;;;;;;;4.22;1.20;;;;;;;-142.57;100.00;115900.28;5074140;28;20105;-84
2023/05/17 02:44:03;;;;;;;1.83;1.00;;;;;;;-142.57;100.00;115900.28;5061053;28;20138;-88
2023/05/17 02:49:51;;;;;;;5.73;1.23;;;;;;;-142.57;100.00;115900.28;5078590;28;20045;-85
2023/05/17 02:52:16;;;;;;;1.05;0.95;;;;;;;-142.57;100.00;115900.28;5078365;28;20025;-86
2023/05/17 02:55:03;;;;;;;5.07;0.90;;;;;;;-142.57;100.00;115900.28;5093477;28;20036;-87
2023/05/17 02:57:29;;;;;;;3.03;1.08;;;;;;;-142.57;100.00;115900.28;5076935;28;20060;-85
2023/05/17 02:59:54;;;;;;;7.35;1.15;;;;;;;-142.57;100.00;115900.28;5072419;28;20037;-85
2023/05/17 03:02:20;;;;;;;6.80;1.00;;;;;;;-142.57;100.00;115900.28;5066733;28;20064;-87
2023/05/17 03:04:46;;;;;;;5.10;1.10;;;;;;;-142.57;100.00;115900.28;5056587;28;20123;-85
2023/05/17 03:07:11;;;;;;;7.80;1.40;;;;;;;-142.57;100.00;115900.28;5056000;28;20075;-86
2023/05/17 03:09:38;;;;;;;2.83;1.20;;;;;;;-142.57;100.00;115900.28;5057004;28;20055;-87
2023/05/17 03:12:05;;;;;;;1.58;1.40;;;;;;;-142.57;100.00;115900.28;5072859;28;20478;-87
2023/05/17 03:14:32;;;;;;;1.83;1.20;;;;;;;-142.57;100.00;115900.28;5053452;28;20029;-88
2023/05/17 03:17:01;;;;;;;1.48;1.20;;;;;;;-142.57;100.00;115900.28;5052575;28;20422;-86
2023/05/17 03:19:26;;;;;;;6.15;3.05;;;;;;;-142.57;100.00;115900.28;5053624;28;20394;-86
2023/05/17 03:21:53;;;;;;;3.70;1.83;;;;;;;-142.57;100.00;115900.28;5055635;28;20032;-85
2023/05/17 03:24:19;;;;;;;6.07;1.92;;;;;;;-142.57;100.00;115900.28;5059598;28;20036;-85
2023/05/17 03:26:45;;;;;;;5.30;2.08;;;;;;;-142.57;100.00;115900.28;5057792;28;20032;-85
2023/05/17 03:29:11;;;;;;;5.80;1.70;;;;;;;-142.57;100.00;115900.28;5061879;28;20147;-88
2023/05/17 03:31:39;;;;;;;4.22;1.67;;;;;;;-142.57;100.00;115900.28;5077323;28;20029;-85
2023/05/17 03:34:05;;;;;;;2.65;1.20;;;;;;;-142.57;100.00;115900.28;5053927;28;20103;-85
2023/05/17 03:36:33;;;;;;;1.90;1.42;;;;;;;-142.57;100.00;115900.28;5054715;28;20041;-88
2023/05/17 03:38:58;;;;;;;8.82;1.85;;;;;;;-142.57;100.00;115900.28;5068930;28;20509;-85
2023/05/17 03:41:24;;;;;;;2.10;1.35;;;;;;;-142.57;100.00;115900.28;5052217;28;20052;-86
2023/05/17 03:43:50;;;;;;;2.88;1.42;;;;;;;-142.57;100.00;115900.28;5053310;28;20064;-85
2023/05/17 03:46:16;;;;;;;4.35;1.33;;;;;;;-142.57;100.00;115900.28;5035711;28;20033;-84
2023/05/17 03:48:41;;;;;;;5.43;1.67;;;;;;;-142.57;100.00;115900.28;5054796;28;20044;-87
2023/05/17 03:51:08;;;;;;;3.67;1.40;;;;;;;-142.57;100.00;115900.28;5057631;28;20037;-82
2023/05/17 03:53:39;;;;;;;3.72;1.40;;;;;;;-142.57;100.00;115900.28;5064937;28;20064;-86
2023/05/17 03:56:06;;;;;;;2.25;1.45;;;;;;;-142.57;100.00;115900.28;5081654;28;20040;-86
2023/05/17 03:58:31;;;;;;;3.35;1.50;;;;;;;-142.57;100.00;115900.28;5057882;28;20037;-86
2023/05/17 04:00:57;;;;;;;4.40;1.58;;;;;;;-142.57;100.00;115900.28;5051814;28;20405;-86
2023/05/17 04:03:22;;;;;;;6.75;1.70;;;;;;;-142.57;100.00;115900.28;5051999;28;20096;-84
2023/05/17 04:05:49;;;;;;;2.83;1.30;;;;;;;-142.57;100.00;115900.28;5051685;28;20135;-85
2023/05/17 04:08:15;;;;;;;5.68;2.22;;;;;;;-142.57;100.00;115900.28;5051354;28;20032;-84
2023/05/17 04:10:41;;;;;;;5.40;1.73;;;;;;;-142.57;100.00;115900.28;5050920;28;20033;-86
2023/05/17 04:13:09;;;;;;;3.40;1.70;;;;;;;-142.57;100.00;115900.28;5051216;28;20086;-83
2023/05/17 04:15:37;;;;;;;4.63;1.63;;;;;;;-142.57;100.00;115900.28;5051275;28;20133;-85
2023/05/17 04:18:03;;;;;;;1.88;1.42;;;;;;;-142.57;100.00;115900.28;5051370;28;20383;-84
2023/05/17 04:20:29;;;;;;;3.38;1.60;;;;;;;-142.57;100.00;115900.28;5051135;28;20037;-85
2023/05/17 04:22:55;;;;;;;5.32;1.60;;;;;;;-142.57;100.00;115900.28;5051285;28;20025;-85
2023/05/17 04:25:23;;;;;;;1.80;1.20;;;;;;;-142.57;100.00;115900.28;5050665;28;20044;-84
2023/05/17 04:27:49;;;;;;;4.15;1.42;;;;;;;-142.57;100.00;115900.28;5067631;28;20405;-86
2023/05/17 04:30:15;;;;;;;2.40;1.25;;;;;;;-142.57;100.00;115900.28;5052047;28;20066;-84
2023/05/17 04:32:42;;;;;;;2.08;1.30;;;;;;;-142.57;100.00;115900.28;5050921;28;20021;-85
2023/05/17 04:35:08;;;;;;;2.22;1.70;;;;;;;-142.57;100.00;115900.28;5050719;28;20072;-86
2023/05/17 04:37:34;;;;;;;4.15;1.30;;;;;;;-142.57;100.00;115900.28;5050970;28;20029;-87
2023/05/17 04:40:09;;;;;;;3.00;1.40;;;;;;;-142.57;100.00;115900.28;5051779;28;20033;-85
2023/05/17 04:42:34;;;;;;;2.53;1.40;;;;;;;-142.57;100.00;115900.28;5051011;28;20059;-86
2023/05/17 04:45:05;;;;;;;2.25;1.20;;;;;;;-142.57;100.00;115900.28;5069983;28;20033;-86
2023/05/17 04:47:31;;;;;;;7.38;1.40;;;;;;;-142.57;100.00;115900.28;5038358;28;20052;-87
2023/05/17 04:49:57;;;;;;;2.25;1.35;;;;;;;-142.57;100.00;115900.28;5063940;28;20425;-85
2023/05/17 04:52:23;;;;;;;1.77;0.93;;;;;;;-142.57;100.00;115900.28;5068972;28;20043;-85
2023/05/17 04:54:52;;;;;;;1.60;1.17;;;;;;;-142.57;100.00;115900.28;5057516;28;20053;-86
2023/05/17 04:57:20;;;;;;;6.82;1.30;;;;;;;-142.57;100.00;115900.28;5060255;28;20074;-86
2023/05/17 04:59:57;;;;;;;2.40;1.00;;;;;;;-142.57;100.00;115900.28;5055608;28;20049;-87
2023/05/17 05:02:24;;;;;;;3.22;1.08;;;;;;;-142.57;100.00;115900.28;5056659;28;20086;-88
2023/05/17 05:04:49;;;;;;;2.05;1.30;;;;;;;-142.57;100.00;115900.28;5058693;28;20044;-85
2023/05/17 05:07:16;;;;;;;4.78;1.33;;;;;;;-142.57;100.00;115900.28;5058079;28;20021;-88
2023/05/17 05:09:42;;;;;;;4.75;1.35;;;;;;;-142.57;100.00;115900.28;5056803;28;20037;-90
2023/05/17 05:12:10;;;;;;;2.15;1.10;;;;;;;-142.57;100.00;115900.28;5060158;28;20056;-90
2023/05/17 05:14:36;;;;;;;4.13;1.48;;;;;;;-142.57;100.00;115900.28;5058658;28;20128;-87
2023/05/17 05:17:02;;;;;;;2.22;1.48;;;;;;;-142.57;100.00;115900.28;5042561;28;20062;-87
2023/05/17 05:19:28;;;;;;;2.95;2.13;;;;;;;-142.57;100.00;115900.28;5076349;28;20037;-86
2023/05/17 05:21:54;;;;;;;2.38;1.75;;;;;;;-142.57;100.00;115900.28;5057290;28;20124;-89
2023/05/17 05:24:20;;;;;;;1.85;1.00;;;;;;;-142.57;100.00;115900.28;5058289;28;20114;-87
2023/05/17 05:26:46;;;;;;;4.60;1.20;;;;;;;-142.57;100.00;115900.28;5042870;28;20029;-90
2023/05/17 05:29:13;;;;;;;1.48;0.93;;;;;;;-142.57;100.00;115900.28;5060841;28;20108;-89
2023/05/17 05:31:45;;;;;;;4.00;1.40;;;;;;;-142.57;100.00;115900.28;5062542;28;20075;-89
2023/05/17 05:34:35;;;;;;;4.35;1.25;;;;;;;-142.57;100.00;115900.28;5066838;28;20052;-89
2023/05/17 05:37:04;;;;;;;2.63;1.52;;;;;;;-142.57;100.00;115900.28;5069466;28;20481;-88
2023/05/17 05:39:31;;;;;;;3.40;1.67;;;;;;;-142.57;100.00;115900.28;5064983;28;20036;-86
2023/05/17 05:41:56;;;;;;;1.33;1.20;;;;;;;-142.57;100.00;115900.28;5035576;28;20105;-87
2023/05/17 05:44:22;;;;;;;4.30;1.50;;;;;;;-142.57;100.00;115900.28;5033491;28;20394;-83
2023/05/17 05:46:50;;;;;;;3.20;1.48;;;;;;;-142.57;100.00;115900.28;5030427;28;20337;-85
2023/05/17 05:49:18;;;;;;;3.40;1.40;;;;;;;-142.57;100.00;115900.28;5043839;28;20505;-89
2023/05/17 05:51:43;;;;;;;3.13;1.40;;;;;;;-142.57;100.00;115900.28;5032481;28;20125;-88
2023/05/17 05:54:21;;;;;;;6.30;1.42;;;;;;;-142.57;100.00;115900.28;5054167;22;20100;-86
2023/05/17 05:56:50;;;;;;;3.17;1.60;;;;;;;-142.57;100.00;115900.28;5025208;28;20060;-88
2023/05/17 05:59:17;;;;;;;1.73;1.40;;;;;;;-142.57;100.00;115900.28;5028005;28;20030;-91
2023/05/17 06:01:44;;;;;;;2.85;1.80;;;;;;;-142.57;100.00;115900.28;5023227;28;20033;-88
2023/05/17 06:04:10;;;;;;;3.97;1.40;;;;;;;-142.57;100.00;115900.28;5042804;28;20462;-86
2023/05/17 06:06:37;;;;;;;1.92;1.38;;;;;;;-142.57;100.00;115900.28;5040928;28;20063;-88
2023/05/17 06:09:06;;;;;;;2.60;1.25;;;;;;;-142.57;100.00;115900.28;5041308;28;20029;-89
2023/05/17 06:11:34;;;;;;;7.45;1.80;;;;;;;-142.57;100.00;115900.28;5058040;22;20034;-89
2023/05/17 06:14:02;;;;;;;2.78;1.40;;;;;;;-142.57;100.00;115900.28;5045542;28;20044;-86
2023/05/17 06:17:08;;;;;;;3.75;1.85;;;;;;;-142.57;100.00;115900.28;5052245;28;20029;-88
2023/05/17 06:19:34;;;;;;;2.08;1.50;;;;;;;-142.57;100.00;115900.28;5057759;22;20072;-81
2023/05/17 06:21:59;;;;;;;4.68;2.05;;;;;;;-142.57;100.00;115900.28;5041514;28;20029;-80
2023/05/17 06:24:25;;;;;;;4.68;1.60;;;;;;;-142.57;100.00;115900.28;5040621;28;20097;-81
2023/05/17 06:26:51;;;;;;;2.33;1.33;;;;;;;-142.57;100.00;115900.28;5040961;28;20044;-82
2023/05/17 06:29:16;;;;;;;5.30;1.67;;;;;;;-142.57;100.00;115900.28;5042023;28;20017;-80
2023/05/17 06:31:42;;;;;;;4.93;1.75;;;;;;;-142.57;100.00;115900.28;5042359;28;20617;-81
2023/05/17 06:34:07;;;;;;;7.25;1.70;;;;;;;-142.57;100.00;115900.28;5044162;28;20026;-82
2023/05/17 06:36:34;;;;;;;3.53;2.05;;;;;;;-142.57;100.00;115900.28;5042458;28;20041;-83
2023/05/17 06:38:59;;;;;;;8.30;1.73;;;;;;;-142.57;100.00;115900.28;5041444;28;20033;-82
2023/05/17 06:41:25;;;;;;;3.65;1.98;;;;;;;-142.57;100.00;115900.28;5042102;28;20095;-81
2023/05/17 06:43:50;;;;;;;4.10;1.50;;;;;;;-142.57;100.00;115900.28;5019595;28;20084;-80
2023/05/17 06:46:16;;;;;;;6.57;1.90;;;;;;;-142.57;100.00;115900.28;5035313;28;20029;-85
2023/05/17 06:48:42;;;;;;;5.60;1.67;;;;;;;-142.57;100.00;115900.28;5036869;28;20078;-83
2023/05/17 06:51:07;;;;;;;7.28;1.85;;;;;;;-142.57;100.00;115900.28;5036259;28;20093;-83
2023/05/17 06:53:33;;;;;;;4.10;1.55;;;;;;;-142.57;100.00;115900.28;5036419;28;20172;-82
2023/05/17 06:55:58;;;;;;;5.68;1.50;;;;;;;-142.57;100.00;115900.28;5036757;28;20029;-83
2023/05/17 06:58:25;;;;;;;4.15;1.90;;;;;;;-142.57;100.00;115900.28;5035367;28;20034;-81
2023/05/17 07:00:50;;;;;;;8.13;2.25;;;;;;;-142.57;100.00;115900.28;5035177;28;20470;-80
2023/05/17 07:03:16;;;;;;;4.88;1.60;;;;;;;-142.57;100.00;115900.28;5035090;28;20040;-82
2023/05/17 07:05:41;;;;;;;5.97;1.27;;;;;;;-142.57;100.00;115900.28;5035548;28;20398;-82
2023/05/17 07:08:07;;;;;;;7.13;1.67;;;;;;;-142.57;100.00;115900.28;5034575;28;20128;-79
2023/05/17 07:10:32;;;;;;;8.68;2.60;;;;;;;-142.57;100.00;115900.28;5034451;28;20112;-85
2023/05/17 07:12:58;;;;;;;2.30;1.33;;;;;;;-142.57;100.00;115900.28;5035698;28;20416;-83
2023/05/17 07:15:23;;;;;;;3.90;1.67;;;;;;;-142.57;100.00;115900.28;5035541;28;20041;-82
2023/05/17 07:17:49;;;;;;;9.05;1.58;;;;;;;-142.57;100.00;115900.28;5035045;28;20041;-84
2023/05/17 07:20:15;;;;;;;4.38;1.20;;;;;;;-142.57;100.00;115900.28;5035315;28;20033;-84
2023/05/17 07:22:40;;;;;;;2.70;1.30;;;;;;;-142.57;100.00;115900.28;5034528;28;20025;-85
2023/05/17 07:25:07;;;;;;;4.07;1.25;;;;;;;-142.57;100.00;115900.28;5035140;28;20071;-83
2023/05/17 07:27:32;;;;;;;4.63;1.20;;;;;;;-142.57;100.00;115900.28;5035867;28;20079;-85
2023/05/17 07:29:58;;;;;;;3.05;0.80;;;;;;;-142.57;100.00;115900.28;5033591;28;20045;-83
2023/05/17 07:32:23;;;;;;;2.13;1.15;;;;;;;-142.57;100.00;115900.28;5034494;28;20483;-84
2023/05/17 07:34:49;;;;;;;3.22;1.10;;;;;;;-142.57;100.00;115900.28;5034119;28;20124;-83
2023/05/17 07:37:14;;;;;;;5.60;0.95;;;;;;;-142.57;100.00;115900.28;5035309;28;20060;-84
2023/05/17 07:39:40;;;;;;;2.97;0.98;;;;;;;-142.57;100.00;115900.28;5033867;28;20452;-81
2023/05/17 07:42:06;;;;;;;2.95;1.30;;;;;;;-142.57;100.00;115900.28;5034260;28;20474;-78
2023/05/17 07:44:31;;;;;;;2.15;0.90;;;;;;;-142.57;100.00;115900.28;5034189;28;20068;-81
2023/05/17 07:46:57;;;;;;;1.67;0.80;;;;;;;-142.57;100.00;115900.28;5031640;28;20033;-82
2023/05/17 07:49:23;;;;;;;4.70;1.00;;;;;;;-142.57;100.00;115900.28;5032163;28;20034;-82
2023/05/17 07:51:49;;;;;;;3.10;1.10;;;;;;;-142.57;100.00;115900.28;5033094;28;20038;-82
2023/05/17 07:54:28;;;;;;;3.22;1.15;;;;;;;-142.57;100.00;115900.28;5032601;28;20499;-82
2023/05/17 07:56:54;;;;;;;5.75;0.95;;;;;;;-142.57;100.00;115900.28;5032275;28;20053;-81
2023/05/17 07:59:25;;;;;;;2.42;1.33;;;;;;;-142.57;100.00;115900.28;5039893;28;20086;-82
2023/05/17 08:01:51;;;;;;;3.35;1.30;;;;;;;-142.57;100.00;115900.28;5053192;28;20033;-82
2023/05/17 08:04:18;;;;;;;2.47;1.00;;;;;;;-142.57;100.00;115900.28;5054762;28;20043;-84
2023/05/17 08:06:45;;;;;;;2.00;0.77;;;;;;;-142.57;100.00;115900.28;5055546;28;20064;-83
2023/05/17 08:09:11;;;;;;;5.13;0.80;;;;;;;-142.57;100.00;115900.28;5055003;28;20068;-82
2023/05/17 08:11:40;;;;;;;1.38;0.95;;;;;;;-142.57;100.00;115900.28;5055677;28;20037;-82
2023/05/17 08:14:05;;;;;;;1.65;1.15;;;;;;;-142.57;100.00;115900.28;5055249;28;20030;-79
2023/05/17 08:16:31;;;;;;;7.50;1.20;;;;;;;-142.57;100.00;115900.28;5055777;28;20036;-82
2023/05/17 08:18:56;;;;;;;117.82;6.20;;;;;;;-142.57;100.00;115900.28;5054142;28;20056;-83
2023/05/17 08:21:22;;;;;;;3.55;0.98;;;;;;;-142.57;100.00;115900.28;5051446;28;20124;-80
2023/05/17 08:23:48;;;;;;;1.95;0.65;;;;;;;-142.57;100.00;115900.28;5050268;28;20044;-82
2023/05/17 08:26:14;;;;;;;6.22;1.13;;;;;;;-142.57;100.00;115900.28;5050861;28;20463;-80
2023/05/17 08:28:39;;;;;;;4.35;0.68;;;;;;;-142.57;100.00;115900.28;5056061;28;20026;-82
2023/05/17 08:31:05;;;;;;;3.08;0.73;;;;;;;-142.57;100.00;115900.28;5055021;28;20069;-80
2023/05/17 08:33:31;;;;;;;5.93;0.85;;;;;;;-142.57;100.00;115900.28;5053457;28;20510;-81
2023/05/17 08:36:00;;;;;;;2.42;0.88;;;;;;;-142.57;100.00;115900.28;5054607;28;20049;-82
2023/05/17 08:38:25;;;;;;;1.75;0.90;;;;;;;-142.57;100.00;115900.28;5054694;28;20068;-82
2023/05/17 08:40:54;;;;;;;6.18;1.65;;;;;;;-142.57;100.00;115900.28;5055534;28;20038;-83
2023/05/17 08:43:22;;;;;;;3.67;1.05;;;;;;;-142.57;100.00;115900.28;5056133;28;20025;-86
2023/05/17 08:45:51;;;;;;;4.05;1.02;;;;;;;-142.57;100.00;115900.28;5053302;28;20013;-83
2023/05/17 08:48:20;;;;;;;1.42;0.68;;;;;;;-142.57;100.00;115900.28;5043437;28;20045;-83
2023/05/17 08:50:49;;;;;;;2.33;1.10;;;;;;;-142.57;100.00;115900.28;5051564;28;20024;-83
2023/05/17 08:53:16;;;;;;;1.67;0.82;;;;;;;-142.57;100.00;115900.28;5061929;28;20013;-85
2023/05/17 08:55:46;;;;;;;2.67;1.13;;;;;;;-142.57;100.00;115900.28;5044591;28;20156;-82
2023/05/17 08:58:13;;;;;;;7.88;1.23;;;;;;;-142.57;100.00;115900.28;5047624;28;20033;-86
2023/05/17 09:00:39;;;;;;;7.38;1.88;;;;;;;-142.57;100.00;115900.28;5055602;28;20043;-82
2023/05/17 09:03:05;;;;;;;2.67;0.60;;;;;;;-142.57;100.00;115900.28;5054491;28;20033;-85
2023/05/17 09:05:31;;;;;;;15.65;1.63;;;;;;;-142.57;100.00;115900.28;5069112;28;20041;-84
2023/05/17 09:07:58;;;;;;;5.03;1.00;;;;;;;-142.57;100.00;115900.28;5055054;28;20047;-82
2023/05/17 09:10:23;;;;;;;13.25;2.20;;;;;;;-142.57;100.00;115900.28;5054129;28;20116;-85
2023/05/17 09:12:49;;;;;;;1.17;0.57;;;;;;;-142.57;100.00;115900.28;5053864;28;20056;-83
2023/05/17 09:15:22;;;;;;;7.47;1.25;;;;;;;-142.57;100.00;115900.28;5053075;28;20025;-82
2023/05/17 09:17:52;;;;;;;2.53;0.70;;;;;;;-142.57;100.00;115900.28;5054041;28;20082;-85
2023/05/17 09:20:32;;;;;;;34.53;1.92;;;;;;;-142.57;100.00;115900.28;5053889;28;20036;-87
2023/05/17 09:22:59;;;;;;;2.00;0.70;;;;;;;-142.57;100.00;115900.28;5054045;28;20033;-82
2023/05/17 09:25:27;;;;;;;3.63;0.60;;;;;;;-142.57;100.00;115900.28;5053104;28;20052;-80
2023/05/17 09:27:54;;;;;;;1.70;0.50;;;;;;;-142.57;100.00;115900.28;5068278;28;20394;-81
2023/05/17 09:30:27;;;;;;;14.85;0.95;;;;;;;-142.57;100.00;115900.28;5052951;28;20167;-83
2023/05/17 09:32:56;;;;;;;1.30;0.40;;;;;;;-142.57;100.00;115900.28;5057118;28;20177;-82
2023/05/17 09:35:31;;;;;;;1.73;0.50;;;;;;;-142.57;100.00;115900.28;5056510;28;20033;-82
2023/05/17 09:38:05;;;;;;;0.55;0.35;;;;;;;-142.57;100.00;115900.28;5039677;28;20037;-83
2023/05/17 09:40:31;;;;;;;0.93;0.40;;;;;;;-142.57;100.00;115900.28;5029380;28;20030;-84
2023/05/17 09:42:58;;;;;;;0.60;0.30;;;;;;;-142.57;100.00;115900.28;5027820;28;20379;-85
2023/05/17 09:45:23;;;;;;;4.80;0.70;;;;;;;-142.57;100.00;115900.28;5035218;28;20075;-82
2023/05/17 09:47:50;;;;;;;1.25;0.57;;;;;;;-142.57;100.00;115900.28;5037028;28;20033;-84
2023/05/17 09:50:21;;;;;;;1.55;0.60;;;;;;;-142.57;100.00;115900.28;5035741;28;20041;-84
2023/05/17 09:52:46;;;;;;;0.50;0.30;;;;;;;-142.57;100.00;115900.28;5023683;28;20021;-82
2023/05/17 09:55:12;;;;;;;2.90;0.38;;;;;;;-142.57;100.00;115900.28;5024199;28;20037;-82
2023/05/17 09:57:39;;;;;;;3.25;0.40;;;;;;;-142.57;100.00;115900.28;5023868;28;20506;-85
2023/05/17 10:00:10;;;;;;;2.03;0.50;;;;;;;-142.57;100.00;115900.28;5022506;28;20021;-83
2023/05/17 10:02:41;;;;;;;1.25;0.40;;;;;;;-142.57;100.00;115900.28;5026346;28;20033;-81
2023/05/17 10:05:11;;;;;;;1.85;0.70;;;;;;;-142.57;100.00;115900.28;5013123;28;20410;-84
2023/05/17 10:07:37;;;;;;;1.20;0.40;;;;;;;-142.57;100.00;115900.28;5020767;28;20041;-82
2023/05/17 10:10:05;;;;;;;3.70;0.73;;;;;;;-142.57;100.00;115900.28;5015523;28;20478;-83
2023/05/17 10:12:35;;;;;;;1.63;0.50;;;;;;;-142.57;100.00;115900.28;5015499;28;20048;-83
2023/05/17 10:15:00;;;;;;;2.10;0.47;;;;;;;-142.57;100.00;115900.28;5014313;28;20430;-83
2023/05/17 10:17:29;;;;;;;0.57;0.50;;;;;;;-142.57;100.00;115900.28;5014225;28;20077;-81
2023/05/17 10:19:55;;;;;;;4.13;0.45;;;;;;;-142.57;100.00;115900.28;5016217;28;20034;-84
2023/05/17 10:22:21;;;;;;;1.05;0.30;;;;;;;-142.57;100.00;115900.28;5015333;28;20391;-81
2023/05/17 10:24:48;;;;;;;1.48;0.40;;;;;;;-142.57;100.00;115900.28;5015131;28;20065;-82
2023/05/17 10:27:15;;;;;;;1.52;0.50;;;;;;;-142.57;100.00;115900.28;5015502;28;20395;-83
2023/05/17 10:29:42;;;;;;;2.38;0.50;;;;;;;-142.57;100.00;115900.28;5015197;28;20041;-81
2023/05/17 10:32:09;;;;;;;5.47;0.70;;;;;;;-142.57;100.00;115900.28;5015063;28;20387;-82
2023/05/17 10:34:36;;;;;;;8.77;0.98;;;;;;;-142.57;100.00;115900.28;5015190;28;20115;-82
2023/05/17 10:37:03;;;;;;;0.88;0.45;;;;;;;-142.57;100.00;115900.28;5015413;28;20057;-80
2023/05/17 10:39:30;;;;;;;2.45;0.52;;;;;;;-142.57;100.00;115900.28;5015040;28;20427;-82
2023/05/17 10:41:57;;;;;;;3.22;0.60;;;;;;;-142.57;100.00;115900.28;5014861;28;20066;-83
2023/05/17 10:44:24;;;;;;;3.83;0.50;;;;;;;-142.57;100.00;115900.28;5014977;28;20046;-82
2023/05/17 10:46:59;;;;;;;4.88;0.70;;;;;;;-142.57;100.00;115900.28;5014604;28;20124;-82
2023/05/17 10:49:28;;;;;;;3.25;0.50;;;;;;;-142.57;100.00;115900.28;5013982;28;20390;-83
2023/05/17 10:51:55;;;;;;;4.70;0.90;;;;;;;-142.57;100.00;115900.28;5015646;28;20030;-82
2023/05/17 10:54:33;;;;;;;1.38;0.60;;;;;;;-142.57;100.00;115900.28;5013855;28;20149;-82
2023/05/17 10:57:03;;;;;;;2.72;0.80;;;;;;;-142.57;100.00;115900.28;5015323;28;20038;-82
2023/05/17 10:59:30;;;;;;;1.92;0.85;;;;;;;-142.57;100.00;115900.28;5014939;28;20076;-81
2023/05/17 11:02:07;;;;;;;1.25;0.68;;;;;;;-142.57;100.00;115900.28;5014717;28;20443;-83
2023/05/17 11:04:40;;;;;;;2.15;0.63;;;;;;;-142.57;100.00;115900.28;5016712;28;20040;-82
2023/05/17 11:07:19;;;;;;;4.50;0.60;;;;;;;-142.57;100.00;115900.28;5020008;28;20116;-84
2023/05/17 11:09:48;;;;;;;2.90;0.90;;;;;;;-142.57;100.00;115900.28;5020518;28;20495;-83